TimeCEST,TemperatureF,Dew PointF,Humidity,Sea Level PressureIn,VisibilityMPH,Wind Direction,Wind SpeedMPH,Gust SpeedMPH,PrecipitationIn,Events,Conditions,WindDirDegrees,DateUTC
12:00 AM,60.8,55.4,82,30.04,-9999.0,South,3.5,-,N/A,,Clear,170,2013-06-16 22:00:00
12:30 AM,60.8,53.6,77,30.04,-9999.0,NNW,4.6,-,N/A,,Clear,340,2013-06-16 22:30:00
1:00 AM,59.0,53.6,82,30.04,-9999.0,NNW,3.5,-,N/A,,Clear,340,2013-06-16 23:00:00
1:30 AM,57.2,53.6,88,30.04,-9999.0,NNW,3.5,-,N/A,,Clear,330,2013-06-16 23:30:00
2:00 AM,56,52,83,30.06,44,NNW,4.5,,,,Scattered Clouds,330,2013-06-17 00:00:00
2:00 AM,57.2,53.6,88,30.04,-9999.0,NNW,3.5,-,N/A,,Clear,340,2013-06-17 00:00:00
2:30 AM,55.4,51.8,88,30.04,-9999.0,Variable,2.3,-,N/A,,Clear,0,2013-06-17 00:30:00
3:00 AM,53.6,51.8,94,30.04,-9999.0,WNW,2.3,-,N/A,,Clear,300,2013-06-17 01:00:00
3:30 AM,55.4,51.8,88,30.04,-9999.0,WNW,1.2,-,N/A,,Clear,290,2013-06-17 01:30:00
4:00 AM,53.6,51.8,94,30.04,-9999.0,WNW,5.8,-,N/A,,Clear,300,2013-06-17 02:00:00
4:30 AM,55.4,51.8,88,30.04,-9999.0,NNW,3.5,-,N/A,,Clear,330,2013-06-17 02:30:00
5:00 AM,55.4,51.8,88,30.04,-9999.0,NW,3.5,-,N/A,,Clear,320,2013-06-17 03:00:00
5:30 AM,55.4,51.8,88,30.06,-9999.0,NNW,6.9,-,N/A,,Clear,330,2013-06-17 03:30:00
6:00 AM,57.2,51.8,82,30.06,-9999.0,NNW,3.5,-,N/A,,Clear,330,2013-06-17 04:00:00
6:30 AM,59.0,53.6,82,30.06,-9999.0,North,3.5,-,N/A,,Clear,10,2013-06-17 04:30:00
7:00 AM,60.8,51.8,72,30.06,-9999.0,Variable,2.3,-,N/A,,Clear,0,2013-06-17 05:00:00
7:30 AM,64.4,53.6,68,30.06,-9999.0,NE,3.5,-,N/A,,Clear,50,2013-06-17 05:30:00
8:00 AM,65,54,60,30.04,44,East,6.7,,,,Mostly Cloudy,80,2013-06-17 06:00:00
8:00 AM,64.4,55.4,73,30.06,-9999.0,NE,5.8,-,N/A,,Clear,50,2013-06-17 06:00:00
8:30 AM,64.4,55.4,73,30.06,-9999.0,NNE,4.6,-,N/A,,Clear,20,2013-06-17 06:30:00
9:00 AM,66.2,55.4,68,30.06,-9999.0,NNE,3.5,-,N/A,,Clear,30,2013-06-17 07:00:00
9:30 AM,66.2,57.2,73,30.06,-9999.0,North,4.6,-,N/A,,Clear,360,2013-06-17 07:30:00
10:00 AM,69.8,59.0,68,30.06,-9999.0,NNE,4.6,-,N/A,,Clear,30,2013-06-17 08:00:00
10:30 AM,71.6,59.0,64,30.06,-9999.0,NNE,4.6,-,N/A,,Clear,20,2013-06-17 08:30:00
11:00 AM,71.6,59.0,64,30.06,-9999.0,East,4.6,-,N/A,,Clear,90,2013-06-17 09:00:00
11:20 AM,75.2,60.8,61,30.06,-9999.0,Variable,3.5,-,N/A,,Clear,0,2013-06-17 09:20:00
11:30 AM,73.4,60.8,65,30.06,-9999.0,Variable,3.5,-,N/A,,Clear,0,2013-06-17 09:30:00
12:00 PM,75.2,59.0,57,30.06,-9999.0,NE,5.8,-,N/A,,Clear,40,2013-06-17 10:00:00
12:30 PM,77.0,60.8,57,30.06,-9999.0,Variable,3.5,-,N/A,,Clear,0,2013-06-17 10:30:00
1:00 PM,77.0,60.8,57,30.06,-9999.0,NNE,6.9,-,N/A,,Clear,30,2013-06-17 11:00:00
1:30 PM,78.8,62.6,57,30.06,-9999.0,NNE,6.9,-,N/A,,Clear,30,2013-06-17 11:30:00
2:00 PM,79,64,51,29.99,25,ENE,6.7,,,,Scattered Clouds,70,2013-06-17 12:00:00
2:00 PM,78.8,64.4,61,30.04,6.2,NE,6.9,-,N/A,,Partly Cloudy,50,2013-06-17 12:00:00
2:30 PM,80.6,64.4,58,30.04,6.2,NE,6.9,-,N/A,,Partly Cloudy,50,2013-06-17 12:30:00
3:00 PM,80.6,64.4,58,30.04,6.2,ENE,6.9,-,N/A,,Partly Cloudy,70,2013-06-17 13:00:00
3:30 PM,80.6,64.4,58,30.04,6.2,ENE,6.9,-,N/A,,Partly Cloudy,70,2013-06-17 13:30:00
4:00 PM,82.4,66.2,58,30.01,6.2,NNE,9.2,-,N/A,,Partly Cloudy,30,2013-06-17 14:00:00
4:30 PM,82.4,64.4,54,30.01,-9999.0,NNE,9.2,-,N/A,,Clear,30,2013-06-17 14:30:00
5:00 PM,82.4,66.2,58,30.01,-9999.0,NE,9.2,-,N/A,,Clear,50,2013-06-17 15:00:00
5:30 PM,82.4,64.4,54,30.01,-9999.0,ENE,8.1,-,N/A,,Clear,70,2013-06-17 15:30:00
6:00 PM,82.4,64.4,54,29.98,-9999.0,ENE,9.2,-,N/A,,Clear,70,2013-06-17 16:00:00
6:30 PM,82.4,62.6,51,29.98,-9999.0,ENE,9.2,-,N/A,,Clear,70,2013-06-17 16:30:00
7:00 PM,82.4,64.4,54,29.98,-9999.0,ENE,8.1,-,N/A,,Clear,70,2013-06-17 17:00:00
7:30 PM,80.6,64.4,58,29.98,-9999.0,NE,8.1,-,N/A,,Clear,50,2013-06-17 17:30:00
8:00 PM,79,64,51,29.94,31,ENE,8.9,,,,Clear,70,2013-06-17 18:00:00
8:00 PM,78.8,64.4,61,29.98,-9999.0,ENE,10.4,-,N/A,,Clear,60,2013-06-17 18:00:00
8:30 PM,77.0,64.4,65,29.98,-9999.0,ENE,10.4,-,N/A,,Clear,60,2013-06-17 18:30:00
9:00 PM,73.4,62.6,69,29.98,-9999.0,East,9.2,-,N/A,,Clear,80,2013-06-17 19:00:00
9:30 PM,73.4,62.6,69,30.01,-9999.0,East,9.2,-,N/A,,Clear,90,2013-06-17 19:30:00
10:00 PM,73.4,62.6,69,30.01,-9999.0,ESE,8.1,-,N/A,,Clear,110,2013-06-17 20:00:00
10:30 PM,73.4,62.6,69,30.01,-9999.0,ESE,8.1,-,N/A,,Clear,110,2013-06-17 20:30:00
11:00 PM,71.6,62.6,73,30.01,-9999.0,SE,6.9,-,N/A,,Clear,140,2013-06-17 21:00:00
11:30 PM,71.6,62.6,73,30.01,-9999.0,SE,6.9,-,N/A,,Clear,140,2013-06-17 21:30:00